N4HL KPIE-KLAL
Flight info
| Callsign | N4HL |
|---|---|
| Flight time | 0h 43m |
| Altitude | 3000 |
| Route | KOCF |
| Aircraft | C172/L-SFG/C |
Departure
| Time | 2026-04-21 23:41 |
|---|---|
| Airport | St. Petersburg Clearwater International Airport (KPIE) |
Arrival
| Time | 2026-04-22 00:24 |
|---|---|
| Airport | Lakeland Linder International Airport (KLAL) |
| Time | Latitude | Longitude | Altitude | Speed | Heading |
|---|---|---|---|---|---|
| 2026-04-21 23:26 | 27.90221 | -82.68924 | 19 ft | 0 kts | 262° |
| 2026-04-21 23:31 | 27.90221 | -82.68923 | 19 ft | 0 kts | 262° |
| 2026-04-21 23:37 | 27.90236 | -82.68940 | 19 ft | 8 kts | 349° |
| 2026-04-21 23:38 | 27.90264 | -82.68909 | 19 ft | 5 kts | 83° |
| 2026-04-21 23:38 | 27.90263 | -82.68872 | 19 ft | 5 kts | 124° |
| 2026-04-21 23:38 | 27.90219 | -82.68859 | 19 ft | 7 kts | 172° |
| 2026-04-21 23:38 | 27.90187 | -82.68858 | 18 ft | 0 kts | 183° |
| 2026-04-21 23:39 | 27.90174 | -82.68858 | 18 ft | 8 kts | 180° |
| 2026-04-21 23:40 | 27.90089 | -82.68857 | 16 ft | 11 kts | 178° |
| 2026-04-21 23:40 | 27.90111 | -82.68809 | 16 ft | 24 kts | 39° |
| 2026-04-21 23:40 | 27.90366 | -82.68566 | 23 ft | 68 kts | 48° |
| 2026-04-21 23:40 | 27.90764 | -82.68182 | 178 ft | 79 kts | 46° |
| 2026-04-21 23:41 | 27.91182 | -82.67798 | 497 ft | 77 kts | 45° |
| 2026-04-21 23:41 | 27.91620 | -82.67392 | 683 ft | 88 kts | 46° |
| 2026-04-21 23:41 | 27.92091 | -82.66971 | 937 ft | 83 kts | 47° |
| 2026-04-21 23:41 | 27.92549 | -82.66558 | 1132 ft | 85 kts | 50° |
| 2026-04-21 23:42 | 27.92998 | -82.66145 | 1399 ft | 83 kts | 48° |
| 2026-04-21 23:42 | 27.93491 | -82.65699 | 1404 ft | 98 kts | 49° |
| 2026-04-21 23:42 | 27.93995 | -82.65166 | 1338 ft | 102 kts | 50° |
| 2026-04-21 23:42 | 27.94510 | -82.64609 | 1252 ft | 99 kts | 53° |
| 2026-04-21 23:43 | 27.94981 | -82.64052 | 1182 ft | 94 kts | 59° |
| 2026-04-21 23:43 | 27.95297 | -82.63453 | 1258 ft | 85 kts | 68° |
| 2026-04-21 23:43 | 27.95610 | -82.62872 | 1395 ft | 87 kts | 64° |
| 2026-04-21 23:43 | 27.95949 | -82.62281 | 1518 ft | 89 kts | 63° |
| 2026-04-21 23:44 | 27.96315 | -82.61675 | 1529 ft | 98 kts | 59° |
| 2026-04-21 23:44 | 27.96717 | -82.61012 | 1462 ft | 101 kts | 66° |
| 2026-04-21 23:44 | 27.96989 | -82.60296 | 1485 ft | 98 kts | 76° |
| 2026-04-21 23:44 | 27.97089 | -82.59544 | 1564 ft | 97 kts | 85° |
| 2026-04-21 23:45 | 27.97134 | -82.58763 | 1542 ft | 100 kts | 87° |
| 2026-04-21 23:45 | 27.97108 | -82.57183 | 1536 ft | 103 kts | 91° |
| 2026-04-21 23:45 | 27.97075 | -82.56378 | 1517 ft | 102 kts | 92° |
| 2026-04-21 23:46 | 27.97055 | -82.55582 | 1527 ft | 100 kts | 92° |
| 2026-04-21 23:46 | 27.97052 | -82.54798 | 1545 ft | 102 kts | 91° |
| 2026-04-21 23:46 | 27.97036 | -82.53993 | 1556 ft | 102 kts | 92° |
| 2026-04-21 23:46 | 27.97039 | -82.53201 | 1626 ft | 97 kts | 89° |
| 2026-04-21 23:47 | 27.97021 | -82.52403 | 1537 ft | 104 kts | 91° |
| 2026-04-21 23:47 | 27.96987 | -82.51597 | 1468 ft | 104 kts | 91° |
| 2026-04-21 23:47 | 27.96947 | -82.50779 | 1399 ft | 103 kts | 92° |
| 2026-04-21 23:47 | 27.96897 | -82.50010 | 1439 ft | 94 kts | 92° |
| 2026-04-21 23:48 | 27.96856 | -82.49287 | 1479 ft | 91 kts | 93° |
| 2026-04-21 23:48 | 27.96827 | -82.48565 | 1476 ft | 94 kts | 93° |
| 2026-04-21 23:48 | 27.96805 | -82.47818 | 1481 ft | 96 kts | 92° |
| 2026-04-21 23:48 | 27.96780 | -82.47056 | 1479 ft | 97 kts | 92° |
| 2026-04-21 23:49 | 27.96753 | -82.46292 | 1477 ft | 97 kts | 92° |
| 2026-04-21 23:49 | 27.96724 | -82.45532 | 1475 ft | 96 kts | 92° |
| 2026-04-21 23:49 | 27.96701 | -82.44788 | 1468 ft | 93 kts | 89° |
| 2026-04-21 23:49 | 27.96909 | -82.44103 | 1464 ft | 95 kts | 63° |
| 2026-04-21 23:50 | 27.97293 | -82.43477 | 1467 ft | 98 kts | 62° |
| 2026-04-21 23:50 | 27.97665 | -82.42831 | 1469 ft | 99 kts | 62° |
| 2026-04-21 23:50 | 27.98047 | -82.42174 | 1462 ft | 99 kts | 63° |
| 2026-04-21 23:50 | 27.98454 | -82.41553 | 1487 ft | 100 kts | 57° |
| 2026-04-21 23:51 | 27.98913 | -82.40981 | 1479 ft | 98 kts | 57° |
| 2026-04-21 23:51 | 27.99370 | -82.40398 | 1490 ft | 99 kts | 56° |
| 2026-04-21 23:51 | 27.99795 | -82.39796 | 1484 ft | 97 kts | 56° |
| 2026-04-21 23:51 | 28.00209 | -82.39213 | 1472 ft | 95 kts | 57° |
| 2026-04-21 23:52 | 28.00627 | -82.38649 | 1491 ft | 92 kts | 57° |
| 2026-04-21 23:52 | 28.01041 | -82.38098 | 1538 ft | 93 kts | 56° |
| 2026-04-21 23:52 | 28.01463 | -82.37495 | 1498 ft | 101 kts | 57° |
| 2026-04-21 23:52 | 28.01952 | -82.36897 | 1446 ft | 105 kts | 49° |
| 2026-04-21 23:53 | 28.02487 | -82.36354 | 1399 ft | 101 kts | 49° |
| 2026-04-21 23:53 | 28.03010 | -82.35836 | 1348 ft | 99 kts | 48° |
| 2026-04-21 23:53 | 28.03524 | -82.35305 | 1302 ft | 102 kts | 49° |
| 2026-04-21 23:53 | 28.04060 | -82.34756 | 1255 ft | 106 kts | 49° |
| 2026-04-21 23:54 | 28.04605 | -82.34201 | 1218 ft | 103 kts | 49° |
| 2026-04-21 23:54 | 28.05134 | -82.33689 | 1217 ft | 99 kts | 49° |
| 2026-04-21 23:54 | 28.05655 | -82.33170 | 1217 ft | 101 kts | 49° |
| 2026-04-21 23:54 | 28.06181 | -82.32644 | 1217 ft | 101 kts | 49° |
| 2026-04-21 23:55 | 28.06699 | -82.32137 | 1208 ft | 96 kts | 49° |
| 2026-04-21 23:55 | 28.07201 | -82.31668 | 1210 ft | 92 kts | 50° |
| 2026-04-21 23:55 | 28.07696 | -82.31201 | 1212 ft | 93 kts | 49° |
| 2026-04-21 23:55 | 28.08188 | -82.30709 | 1222 ft | 95 kts | 50° |
| 2026-04-21 23:56 | 28.08689 | -82.30224 | 1223 ft | 95 kts | 51° |
| 2026-04-21 23:56 | 28.09200 | -82.29749 | 1225 ft | 98 kts | 48° |
| 2026-04-21 23:56 | 28.09726 | -82.29225 | 1227 ft | 103 kts | 49° |
| 2026-04-21 23:56 | 28.10255 | -82.28658 | 1218 ft | 102 kts | 50° |
| 2026-04-21 23:57 | 28.10770 | -82.28135 | 1221 ft | 100 kts | 49° |
| 2026-04-21 23:57 | 28.11305 | -82.27632 | 1218 ft | 101 kts | 49° |
| 2026-04-21 23:57 | 28.11839 | -82.27117 | 1215 ft | 100 kts | 49° |
| 2026-04-21 23:57 | 28.12343 | -82.26588 | 1210 ft | 98 kts | 50° |
| 2026-04-21 23:58 | 28.12844 | -82.26073 | 1227 ft | 97 kts | 50° |
| 2026-04-21 23:58 | 28.13355 | -82.25552 | 1240 ft | 101 kts | 50° |
| 2026-04-21 23:58 | 28.13895 | -82.25018 | 1241 ft | 104 kts | 50° |
| 2026-04-21 23:58 | 28.14440 | -82.24473 | 1235 ft | 105 kts | 49° |
| 2026-04-21 23:59 | 28.14984 | -82.23948 | 1223 ft | 102 kts | 51° |
| 2026-04-21 23:59 | 28.15521 | -82.23428 | 1229 ft | 101 kts | 49° |
| 2026-04-21 23:59 | 28.16046 | -82.22901 | 1228 ft | 102 kts | 51° |
| 2026-04-21 23:59 | 28.16571 | -82.22347 | 1229 ft | 101 kts | 57° |
| 2026-04-22 00:00 | 28.17000 | -82.21707 | 1209 ft | 103 kts | 59° |
| 2026-04-22 00:00 | 28.17099 | -82.20991 | 1242 ft | 97 kts | 110° |
| 2026-04-22 00:00 | 28.16998 | -82.20246 | 1229 ft | 97 kts | 92° |
| 2026-04-22 00:00 | 28.16956 | -82.19475 | 1235 ft | 99 kts | 92° |
| 2026-04-22 00:01 | 28.16933 | -82.18688 | 1233 ft | 100 kts | 91° |
| 2026-04-22 00:01 | 28.16919 | -82.17910 | 1236 ft | 101 kts | 91° |
| 2026-04-22 00:01 | 28.16909 | -82.17105 | 1239 ft | 103 kts | 92° |
| 2026-04-22 00:01 | 28.16901 | -82.16285 | 1237 ft | 104 kts | 92° |
| 2026-04-22 00:02 | 28.16895 | -82.15483 | 1239 ft | 100 kts | 94° |
| 2026-04-22 00:02 | 28.16892 | -82.14701 | 1231 ft | 99 kts | 94° |
| 2026-04-22 00:02 | 28.16887 | -82.13921 | 1225 ft | 99 kts | 93° |
| 2026-04-22 00:02 | 28.16882 | -82.13146 | 1227 ft | 99 kts | 90° |
| 2026-04-22 00:03 | 28.16877 | -82.12366 | 1232 ft | 100 kts | 90° |
| 2026-04-22 00:03 | 28.16873 | -82.11566 | 1228 ft | 102 kts | 90° |
| 2026-04-22 00:03 | 28.16868 | -82.10773 | 1230 ft | 98 kts | 91° |
| 2026-04-22 00:03 | 28.16862 | -82.10011 | 1224 ft | 95 kts | 92° |
| 2026-04-22 00:04 | 28.16859 | -82.09256 | 1221 ft | 97 kts | 94° |
| 2026-04-22 00:04 | 28.16876 | -82.08481 | 1220 ft | 100 kts | 83° |
| 2026-04-22 00:04 | 28.17072 | -82.07719 | 1224 ft | 100 kts | 78° |
| 2026-04-22 00:04 | 28.17264 | -82.06951 | 1222 ft | 102 kts | 78° |
| 2026-04-22 00:05 | 28.17434 | -82.06184 | 1218 ft | 98 kts | 79° |
| 2026-04-22 00:05 | 28.17607 | -82.05449 | 1221 ft | 96 kts | 78° |
| 2026-04-22 00:05 | 28.17802 | -82.04714 | 1222 ft | 98 kts | 78° |
| 2026-04-22 00:05 | 28.17997 | -82.03982 | 1227 ft | 96 kts | 78° |
| 2026-04-22 00:06 | 28.18188 | -82.03267 | 1232 ft | 97 kts | 78° |
| 2026-04-22 00:06 | 28.18363 | -82.02529 | 1225 ft | 94 kts | 79° |
| 2026-04-22 00:06 | 28.18555 | -82.01841 | 1223 ft | 93 kts | 68° |
| 2026-04-22 00:06 | 28.18840 | -82.01173 | 1221 ft | 95 kts | 69° |
| 2026-04-22 00:07 | 28.19129 | -82.00501 | 1221 ft | 96 kts | 69° |
| 2026-04-22 00:07 | 28.19439 | -81.99813 | 1225 ft | 99 kts | 68° |
| 2026-04-22 00:07 | 28.19711 | -81.99095 | 1234 ft | 99 kts | 77° |
| 2026-04-22 00:07 | 28.19865 | -81.98334 | 1226 ft | 99 kts | 80° |
| 2026-04-22 00:08 | 28.20032 | -81.97583 | 1222 ft | 98 kts | 78° |
| 2026-04-22 00:08 | 28.20196 | -81.96823 | 1220 ft | 100 kts | 83° |
| 2026-04-22 00:08 | 28.20225 | -81.96041 | 1230 ft | 99 kts | 88° |
| 2026-04-22 00:08 | 28.20245 | -81.95269 | 1231 ft | 98 kts | 88° |
| 2026-04-22 00:09 | 28.20232 | -81.94496 | 1231 ft | 98 kts | 89° |
| 2026-04-22 00:09 | 28.20233 | -81.93726 | 1230 ft | 98 kts | 89° |
| 2026-04-22 00:09 | 28.20244 | -81.92950 | 1228 ft | 99 kts | 89° |
| 2026-04-22 00:09 | 28.20251 | -81.92162 | 1223 ft | 101 kts | 90° |
| 2026-04-22 00:10 | 28.20260 | -81.91365 | 1217 ft | 101 kts | 96° |
| 2026-04-22 00:10 | 28.20149 | -81.90596 | 1217 ft | 100 kts | 98° |
| 2026-04-22 00:10 | 28.20015 | -81.89814 | 1217 ft | 100 kts | 99° |
| 2026-04-22 00:10 | 28.19804 | -81.89070 | 1218 ft | 100 kts | 105° |
| 2026-04-22 00:11 | 28.19573 | -81.88326 | 1219 ft | 99 kts | 105° |
| 2026-04-22 00:11 | 28.19343 | -81.87589 | 1217 ft | 99 kts | 105° |
| 2026-04-22 00:11 | 28.19115 | -81.86855 | 1218 ft | 99 kts | 105° |
| 2026-04-22 00:11 | 28.18885 | -81.86118 | 1223 ft | 100 kts | 105° |
| 2026-04-22 00:12 | 28.18647 | -81.85377 | 1224 ft | 100 kts | 105° |
| 2026-04-22 00:12 | 28.18405 | -81.84641 | 1223 ft | 98 kts | 105° |
| 2026-04-22 00:12 | 28.18165 | -81.83923 | 1220 ft | 97 kts | 105° |
| 2026-04-22 00:12 | 28.17914 | -81.83211 | 1218 ft | 98 kts | 112° |
| 2026-04-22 00:13 | 28.17518 | -81.82568 | 1221 ft | 100 kts | 118° |
| 2026-04-22 00:13 | 28.17115 | -81.81926 | 1220 ft | 100 kts | 118° |
| 2026-04-22 00:13 | 28.16682 | -81.81305 | 1215 ft | 105 kts | 135° |
| 2026-04-22 00:13 | 28.15928 | -81.81166 | 1223 ft | 118 kts | 180° |
| 2026-04-22 00:14 | 28.15144 | -81.81437 | 1219 ft | 117 kts | 195° |
| 2026-04-22 00:14 | 28.14398 | -81.81745 | 1228 ft | 114 kts | 194° |
| 2026-04-22 00:14 | 28.13649 | -81.82063 | 1222 ft | 116 kts | 193° |
| 2026-04-22 00:14 | 28.12878 | -81.82421 | 1222 ft | 120 kts | 195° |
| 2026-04-22 00:15 | 28.12115 | -81.82780 | 1244 ft | 121 kts | 195° |
| 2026-04-22 00:15 | 28.11431 | -81.83309 | 1242 ft | 125 kts | 232° |
| 2026-04-22 00:15 | 28.10975 | -81.84145 | 1244 ft | 126 kts | 237° |
| 2026-04-22 00:15 | 28.10563 | -81.85039 | 1244 ft | 129 kts | 239° |
| 2026-04-22 00:16 | 28.10134 | -81.85931 | 1243 ft | 128 kts | 235° |
| 2026-04-22 00:16 | 28.09679 | -81.86793 | 1239 ft | 128 kts | 234° |
| 2026-04-22 00:16 | 28.09221 | -81.87651 | 1231 ft | 127 kts | 237° |
| 2026-04-22 00:16 | 28.08870 | -81.88582 | 1239 ft | 129 kts | 246° |
| 2026-04-22 00:17 | 28.08637 | -81.89561 | 1244 ft | 128 kts | 255° |
| 2026-04-22 00:17 | 28.08542 | -81.90212 | 1240 ft | 126 kts | 260° |
| 2026-04-22 00:17 | 28.08495 | -81.91189 | 1221 ft | 124 kts | 268° |
| 2026-04-22 00:17 | 28.08461 | -81.92168 | 1258 ft | 124 kts | 268° |
| 2026-04-22 00:18 | 28.08445 | -81.93168 | 1237 ft | 130 kts | 268° |
| 2026-04-22 00:18 | 28.08426 | -81.94202 | 1212 ft | 131 kts | 267° |
| 2026-04-22 00:18 | 28.08403 | -81.95249 | 1138 ft | 134 kts | 269° |
| 2026-04-22 00:18 | 28.08372 | -81.96296 | 1171 ft | 131 kts | 266° |
| 2026-04-22 00:19 | 28.08139 | -81.97280 | 1185 ft | 130 kts | 239° |
| 2026-04-22 00:19 | 28.07635 | -81.98135 | 1177 ft | 128 kts | 227° |
| 2026-04-22 00:19 | 28.07100 | -81.98936 | 1182 ft | 127 kts | 223° |
| 2026-04-22 00:19 | 28.06531 | -81.99683 | 1218 ft | 125 kts | 224° |
| 2026-04-22 00:20 | 28.05939 | -82.00439 | 1181 ft | 130 kts | 225° |
| 2026-04-22 00:20 | 28.05330 | -82.01192 | 1194 ft | 131 kts | 223° |
| 2026-04-22 00:20 | 28.04696 | -82.01918 | 1180 ft | 130 kts | 212° |
| 2026-04-22 00:20 | 28.03908 | -82.02267 | 1135 ft | 119 kts | 169° |
| 2026-04-22 00:21 | 28.03094 | -82.02166 | 1068 ft | 119 kts | 163° |
| 2026-04-22 00:21 | 28.02315 | -82.02002 | 1063 ft | 110 kts | 159° |
| 2026-04-22 00:21 | 28.01588 | -82.01767 | 1041 ft | 108 kts | 155° |
| 2026-04-22 00:21 | 28.00836 | -82.01569 | 1088 ft | 108 kts | 162° |
| 2026-04-22 00:22 | 28.00090 | -82.01574 | 1112 ft | 124 kts | 200° |
| 2026-04-22 00:22 | 27.99677 | -82.02460 | 1040 ft | 139 kts | 273° |
| 2026-04-22 00:22 | 27.99708 | -82.03511 | 955 ft | 128 kts | 272° |
| 2026-04-22 00:22 | 27.99669 | -82.04474 | 890 ft | 117 kts | 254° |
| 2026-04-22 00:23 | 27.99161 | -82.04958 | 759 ft | 93 kts | 159° |
| 2026-04-22 00:23 | 27.98940 | -82.04462 | 594 ft | 84 kts | 78° |
| 2026-04-22 00:23 | 27.99020 | -82.03804 | 384 ft | 83 kts | 90° |
| 2026-04-22 00:23 | 27.99035 | -82.03183 | 236 ft | 77 kts | 92° |
| 2026-04-22 00:24 | 27.99035 | -82.02612 | 152 ft | 64 kts | 92° |
| 2026-04-22 00:24 | 27.99033 | -82.02182 | 143 ft | 44 kts | 90° |
| 2026-04-22 00:24 | 27.99036 | -82.01897 | 143 ft | 29 kts | 89° |
| 2026-04-22 00:24 | 27.99034 | -82.01648 | 143 ft | 34 kts | 89° |
| 2026-04-22 00:25 | 27.99037 | -82.01357 | 143 ft | 40 kts | 89° |
| 2026-04-22 00:25 | 27.99038 | -82.01043 | 143 ft | 36 kts | 90° |
| 2026-04-22 00:25 | 27.99037 | -82.00824 | 144 ft | 22 kts | 96° |
| 2026-04-22 00:25 | 27.98950 | -82.00759 | 143 ft | 17 kts | 175° |
| 2026-04-22 00:26 | 27.98820 | -82.00756 | 143 ft | 19 kts | 177° |
| 2026-04-22 00:26 | 27.98752 | -82.00838 | 143 ft | 17 kts | 264° |
| 2026-04-22 00:26 | 27.98746 | -82.00986 | 143 ft | 20 kts | 269° |
| 2026-04-22 00:26 | 27.98740 | -82.01168 | 143 ft | 25 kts | 268° |
| 2026-04-22 00:27 | 27.98736 | -82.01363 | 143 ft | 24 kts | 270° |
| 2026-04-22 00:27 | 27.98709 | -82.01529 | 145 ft | 20 kts | 221° |
| 2026-04-22 00:27 | 27.98614 | -82.01634 | 144 ft | 18 kts | 229° |
| 2026-04-22 00:27 | 27.98512 | -82.01682 | 143 ft | 15 kts | 178° |
| 2026-04-22 00:28 | 27.98433 | -82.01665 | 143 ft | 10 kts | 94° |
| 2026-04-22 00:28 | 27.98441 | -82.01640 | 143 ft | 0 kts | 316° |
| 2026-04-22 00:32 | 27.98440 | -82.01640 | 162 ft | 0 kts | 316° |
| 2026-04-22 00:32 | 27.98440 | -82.01639 | 162 ft | 0 kts | 316° |
| 2026-04-22 00:39 | 27.98439 | -82.01638 | 143 ft | 0 kts | 316° |
| 2026-04-22 00:47 | 27.98439 | -82.01637 | 143 ft | 0 kts | 316° |
| 2026-04-22 00:47 | 27.98438 | -82.01637 | 143 ft | 0 kts | 316° |
| 2026-04-22 00:54 | 27.98438 | -82.01636 | 143 ft | 0 kts | 316° |
| 2026-04-22 00:56 | 27.98437 | -82.01636 | 143 ft | 0 kts | 316° |